createdAt,value
2017-10-01T00:02:10.035Z,97697.91
2017-10-01T00:04:37.552Z,97703.12
2017-10-01T00:07:05.111Z,97705.42
2017-10-01T00:09:33.089Z,97705.98
2017-10-01T00:12:00.639Z,97703.76
2017-10-01T00:14:28.198Z,97708.84
2017-10-01T00:16:55.948Z,97713.58
2017-10-01T00:19:23.494Z,97714.50
2017-10-01T00:21:51.020Z,97717.41
2017-10-01T00:24:18.741Z,97712.92
2017-10-01T00:26:46.252Z,97713.18
2017-10-01T00:29:13.774Z,97712.95
2017-10-01T00:31:41.334Z,97716.53
2017-10-01T00:34:08.859Z,97722.25
2017-10-01T00:36:36.384Z,97717.78
2017-10-01T00:39:04.097Z,97716.50
2017-10-01T00:41:31.607Z,97723.52
2017-10-01T00:43:59.134Z,97722.45
2017-10-01T00:46:27.080Z,97718.59
2017-10-01T00:48:54.692Z,97721.78
2017-10-01T00:51:22.207Z,97722.53
2017-10-01T00:53:49.810Z,97728.83
2017-10-01T00:56:17.335Z,97728.78
2017-10-01T00:58:44.866Z,97726.78
2017-10-01T01:01:12.742Z,97726.56
2017-10-01T01:03:40.250Z,97732.11
2017-10-01T01:06:07.860Z,97734.94
2017-10-01T01:08:35.828Z,97740.11
2017-10-01T01:11:03.393Z,97732.98
2017-10-01T01:13:30.941Z,97736.52
2017-10-01T01:15:58.711Z,97741.97
2017-10-01T01:18:26.230Z,97736.06
2017-10-01T01:20:53.743Z,97741.97
2017-10-01T01:23:21.315Z,97739.00
2017-10-01T01:25:48.843Z,97743.20
2017-10-01T01:28:16.466Z,97744.07
2017-10-01T01:30:44.054Z,97748.16
2017-10-01T01:33:11.571Z,97747.39
2017-10-01T01:35:39.086Z,97750.91
2017-10-01T01:38:06.830Z,97747.11
2017-10-01T01:40:34.343Z,97747.73
2017-10-01T01:43:01.854Z,97749.18
2017-10-01T01:45:29.441Z,97744.08
2017-10-01T01:47:57.007Z,97744.14
2017-10-01T01:50:24.536Z,97742.59
2017-10-01T01:52:52.227Z,97747.44
2017-10-01T01:55:19.758Z,97750.14
2017-10-01T01:57:47.318Z,97743.29
2017-10-01T02:00:14.878Z,97748.92
2017-10-01T02:02:42.436Z,97742.93
2017-10-01T02:05:09.994Z,97749.78
2017-10-01T02:07:37.575Z,97748.69
2017-10-01T02:10:05.119Z,97759.02
2017-10-01T02:12:32.652Z,97755.58
2017-10-01T02:15:00.233Z,97757.70
2017-10-01T02:17:27.789Z,97755.52
2017-10-01T02:19:55.309Z,97757.40
2017-10-01T02:22:23.115Z,97756.42
2017-10-01T02:24:50.672Z,97756.02
2017-10-01T02:27:18.232Z,97757.88
2017-10-01T02:29:45.995Z,97763.06
2017-10-01T02:32:13.630Z,97765.97
2017-10-01T02:34:41.153Z,97761.94
2017-10-01T02:37:08.878Z,97764.66
2017-10-01T02:39:36.437Z,97764.39
2017-10-01T02:42:03.995Z,97766.05
2017-10-01T02:44:31.575Z,97770.45
2017-10-01T02:46:59.113Z,97772.97
2017-10-01T02:49:26.636Z,97779.88
2017-10-01T02:51:54.459Z,97782.14
2017-10-01T02:54:21.996Z,97782.38
2017-10-01T02:56:49.555Z,97787.78
2017-10-01T02:59:17.593Z,97792.15
2017-10-01T03:01:45.125Z,97795.62
2017-10-01T03:04:12.663Z,97803.30
2017-10-01T03:06:40.230Z,97801.69
2017-10-01T03:09:07.759Z,97802.54
2017-10-01T03:11:35.320Z,97803.00
2017-10-01T03:14:02.883Z,97802.95
2017-10-01T03:16:30.407Z,97807.59
2017-10-01T03:18:58.226Z,97812.31
2017-10-01T03:21:25.878Z,97816.57
2017-10-01T03:23:53.421Z,97811.45
2017-10-01T03:26:20.949Z,97815.31
2017-10-01T03:28:48.541Z,97821.66
2017-10-01T03:31:16.099Z,97824.67
2017-10-01T03:33:43.659Z,97827.13
2017-10-01T03:36:11.421Z,97827.97
2017-10-01T03:38:38.980Z,97822.37
2017-10-01T03:41:06.540Z,97832.54
2017-10-01T03:43:34.311Z,97822.77
2017-10-01T03:46:01.864Z,97825.79
2017-10-01T03:48:29.422Z,97831.61
2017-10-01T03:50:56.981Z,97831.94
2017-10-01T03:53:24.652Z,97827.52
2017-10-01T03:55:52.206Z,97828.92
2017-10-01T03:58:20.170Z,97835.53
2017-10-01T04:00:47.681Z,97835.59
2017-10-01T04:03:15.193Z,97841.68
2017-10-01T04:05:42.759Z,97842.66
2017-10-01T04:08:10.270Z,97836.48
2017-10-01T04:10:37.787Z,97843.29
2017-10-01T04:13:05.633Z,97846.53
2017-10-01T04:15:33.186Z,97853.44
2017-10-01T04:18:00.698Z,97848.70
2017-10-01T04:20:28.320Z,97855.61
2017-10-01T04:22:55.834Z,97853.28
2017-10-01T04:25:23.354Z,97850.92
2017-10-01T04:27:51.084Z,97857.19
2017-10-01T04:30:18.597Z,97856.88
2017-10-01T04:32:46.115Z,97857.71
2017-10-01T04:35:13.864Z,97853.58
2017-10-01T04:37:41.383Z,97848.47
2017-10-01T04:40:08.906Z,97854.05
2017-10-01T04:42:36.632Z,97854.59
2017-10-01T04:45:04.219Z,97855.12
2017-10-01T04:47:31.730Z,97860.31
2017-10-01T04:49:59.533Z,97863.86
2017-10-01T04:52:27.156Z,97859.38
2017-10-01T04:54:54.666Z,97856.86
2017-10-01T04:57:22.244Z,97865.29
2017-10-01T04:59:49.770Z,97866.20
2017-10-01T05:02:17.322Z,97863.95
2017-10-01T05:04:44.874Z,97865.09
2017-10-01T05:07:12.395Z,97868.99
2017-10-01T05:09:39.934Z,97865.93
2017-10-01T05:12:07.660Z,97867.25
2017-10-01T05:14:35.246Z,97863.95
2017-10-01T05:17:02.880Z,97859.20
2017-10-01T05:19:30.643Z,97858.72
2017-10-01T05:21:58.526Z,97863.15
2017-10-01T05:24:26.119Z,97860.27
2017-10-01T05:26:53.937Z,97857.33
2017-10-01T05:29:21.451Z,97864.88
2017-10-01T05:31:48.967Z,97868.05
2017-10-01T05:34:17.434Z,97862.57
2017-10-01T05:36:44.991Z,97867.20
2017-10-01T05:39:12.551Z,97869.30
2017-10-01T05:41:40.416Z,97872.92
2017-10-01T05:44:07.975Z,97875.24
2017-10-01T05:46:35.491Z,97879.88
2017-10-01T05:49:03.095Z,97879.71
2017-10-01T05:51:30.654Z,97886.06
2017-10-01T05:53:58.212Z,97888.17
2017-10-01T05:56:26.693Z,97890.06
2017-10-01T05:58:54.251Z,97892.05
2017-10-01T06:01:21.850Z,97894.57
2017-10-01T06:03:49.579Z,97895.41
2017-10-01T06:06:17.136Z,97898.71
2017-10-01T06:08:44.696Z,97896.09
2017-10-01T06:11:12.457Z,97892.91
2017-10-01T06:13:40.017Z,97904.08
2017-10-01T06:16:07.529Z,97905.66
2017-10-01T06:18:35.454Z,97914.02
2017-10-01T06:21:02.971Z,97915.16
2017-10-01T06:23:30.494Z,97907.33
2017-10-01T06:25:58.046Z,97911.88
2017-10-01T06:28:25.575Z,97913.41
2017-10-01T06:30:53.140Z,97918.09
2017-10-01T06:33:20.723Z,97915.05
2017-10-01T06:35:48.252Z,97924.72
2017-10-01T06:38:15.811Z,97925.69
2017-10-01T06:40:43.406Z,97932.34
2017-10-01T06:43:10.922Z,97933.75
2017-10-01T06:45:39.860Z,97935.09
2017-10-01T06:48:07.686Z,97938.31
2017-10-01T06:50:35.223Z,97944.04
2017-10-01T06:53:02.813Z,97943.22
2017-10-01T06:55:30.394Z,97946.09
2017-10-01T06:57:58.007Z,97944.61
2017-10-01T07:00:25.534Z,97945.48
2017-10-01T07:02:53.450Z,97945.31
2017-10-01T07:05:21.008Z,97952.22
2017-10-01T07:07:48.575Z,97953.98
2017-10-01T07:10:16.139Z,97954.03
2017-10-01T07:12:43.685Z,97952.61
2017-10-01T07:15:11.361Z,97947.67
2017-10-01T07:17:38.926Z,97947.68
2017-10-01T07:20:06.555Z,97944.07
2017-10-01T07:22:34.130Z,97947.22
2017-10-01T07:25:01.718Z,97948.10
2017-10-01T07:27:29.258Z,97944.27
2017-10-01T07:29:56.805Z,97943.83
2017-10-01T07:32:24.550Z,97937.47
2017-10-01T07:34:52.078Z,97942.70
2017-10-01T07:37:19.613Z,97944.22
2017-10-01T07:39:47.190Z,97942.89
2017-10-01T07:42:14.740Z,97941.58
2017-10-01T07:44:42.346Z,97944.69
2017-10-01T07:47:10.128Z,97949.23
2017-10-01T07:49:37.647Z,97953.36
2017-10-01T07:52:05.170Z,97945.33
2017-10-01T07:54:33.103Z,97939.56
2017-10-01T07:57:00.614Z,97946.98
2017-10-01T07:59:28.133Z,97941.61
2017-10-01T08:01:55.893Z,97946.20
2017-10-01T08:04:23.407Z,97951.58
2017-10-01T08:06:50.922Z,97955.66
2017-10-01T08:09:18.672Z,97952.70
2017-10-01T08:11:46.182Z,97954.22
2017-10-01T08:14:13.689Z,97955.22
2017-10-01T08:16:41.434Z,97951.03
2017-10-01T08:19:09.012Z,97947.94
2017-10-01T08:21:36.571Z,97958.05
2017-10-01T08:24:04.215Z,97954.55
2017-10-01T08:26:31.738Z,97959.91
2017-10-01T08:28:59.454Z,97958.36
2017-10-01T08:31:27.035Z,97963.29
2017-10-01T08:33:54.939Z,97963.42
2017-10-01T08:36:22.554Z,97963.56
2017-10-01T08:38:50.307Z,97968.49
2017-10-01T08:41:17.852Z,97960.50
2017-10-01T08:43:45.524Z,97954.98
2017-10-01T08:46:13.089Z,97965.19
2017-10-01T08:48:41.057Z,97959.75
2017-10-01T08:51:09.737Z,97960.25
2017-10-01T08:53:38.499Z,97960.44
2017-10-01T08:56:06.298Z,97958.72
2017-10-01T08:58:33.878Z,97947.16
2017-10-01T09:01:01.889Z,97953.92
2017-10-01T09:03:29.583Z,97940.78
2017-10-01T09:05:57.364Z,97946.53
2017-10-01T09:08:25.098Z,97953.42
2017-10-01T09:10:52.790Z,97949.32
2017-10-01T09:13:20.559Z,97947.95
2017-10-01T09:15:48.706Z,97939.08
2017-10-01T09:18:16.267Z,97937.33
2017-10-01T09:20:44.344Z,97943.03
2017-10-01T09:23:12.422Z,97945.91
2017-10-01T09:25:40.261Z,97940.11
2017-10-01T09:28:07.937Z,97933.75
2017-10-01T09:30:35.709Z,97935.36
2017-10-01T09:33:03.778Z,97935.37
2017-10-01T09:35:31.567Z,97930.67
2017-10-01T09:37:59.472Z,97928.30
2017-10-01T09:40:27.010Z,97930.50
2017-10-01T09:42:54.530Z,97929.60
2017-10-01T09:45:22.489Z,97926.77
2017-10-01T09:47:49.994Z,97922.45
2017-10-01T09:50:17.526Z,97921.18
2017-10-01T09:52:45.499Z,97915.95
2017-10-01T09:55:13.034Z,97910.70
2017-10-01T09:57:40.809Z,97909.55
2017-10-01T10:00:08.766Z,97903.71
2017-10-01T10:02:36.325Z,97906.53
2017-10-01T10:05:03.903Z,97912.94
2017-10-01T10:07:31.955Z,97906.67
2017-10-01T10:09:59.541Z,97909.00
2017-10-01T10:12:27.160Z,97908.89
2017-10-01T10:14:54.838Z,97911.76
2017-10-01T10:17:22.498Z,97910.84
2017-10-01T10:19:50.364Z,97917.47
2017-10-01T10:22:18.128Z,97910.53
2017-10-01T10:24:45.774Z,97909.80
2017-10-01T10:27:13.556Z,97904.78
2017-10-01T10:29:41.428Z,97908.28
2017-10-01T10:32:09.287Z,97906.97
2017-10-01T10:34:37.058Z,97898.53
2017-10-01T10:37:04.870Z,97906.84
2017-10-01T10:39:32.582Z,97904.08
2017-10-01T10:42:00.239Z,97900.84
2017-10-01T10:44:27.901Z,97901.92
2017-10-01T10:46:55.631Z,97902.70
2017-10-01T10:49:24.351Z,97893.27
2017-10-01T10:51:52.132Z,97889.67
2017-10-01T10:54:20.400Z,97892.34
2017-10-01T10:56:48.256Z,97885.17
2017-10-01T10:59:16.195Z,97878.73
2017-10-01T11:01:44.004Z,97877.17
2017-10-01T11:04:12.367Z,97884.34
2017-10-01T11:06:40.361Z,97885.29
2017-10-01T11:09:08.103Z,97874.74
2017-10-01T11:11:35.934Z,97879.77
2017-10-01T11:14:04.038Z,97873.91
2017-10-01T11:16:31.904Z,97871.55
2017-10-01T11:18:59.770Z,97866.46
2017-10-01T11:21:27.535Z,97865.63
2017-10-01T11:23:55.115Z,97863.17
2017-10-01T11:26:23.061Z,97864.04
2017-10-01T11:28:50.915Z,97867.69
2017-10-01T11:31:18.589Z,97859.31
2017-10-01T11:33:46.455Z,97858.20
2017-10-01T11:36:14.324Z,97858.59
2017-10-01T11:38:42.059Z,97870.00
2017-10-01T11:41:09.646Z,97880.31
2017-10-01T11:43:37.562Z,97882.89
2017-10-01T11:46:06.105Z,97882.37
2017-10-01T11:48:33.659Z,97890.22
2017-10-01T11:51:01.524Z,97885.02
2017-10-01T11:53:29.360Z,97884.37
2017-10-01T11:55:56.945Z,97876.81
2017-10-01T11:58:25.017Z,97874.45
2017-10-01T12:00:52.576Z,97870.86
2017-10-01T12:03:20.135Z,97870.91
2017-10-01T12:05:47.763Z,97869.88
2017-10-01T12:08:15.768Z,97867.65
2017-10-01T12:10:43.323Z,97858.29
2017-10-01T12:13:11.271Z,97863.05
2017-10-01T12:15:38.794Z,97855.42
2017-10-01T12:18:06.310Z,97865.52
2017-10-01T12:20:34.105Z,97871.79
2017-10-01T12:23:01.838Z,97872.00
2017-10-01T12:25:29.434Z,97867.47
2017-10-01T12:27:57.178Z,97862.13
2017-10-01T12:30:24.727Z,97852.98
2017-10-01T12:32:52.279Z,97859.73
2017-10-01T12:35:20.014Z,97863.73
2017-10-01T12:37:47.704Z,97860.14
2017-10-01T12:40:15.291Z,97853.57
2017-10-01T12:42:42.922Z,97849.00
2017-10-01T12:45:10.430Z,97844.42
2017-10-01T12:47:37.942Z,97833.80
2017-10-01T12:50:05.499Z,97844.97
2017-10-01T12:52:33.059Z,97825.12
2017-10-01T12:55:00.822Z,97834.61
2017-10-01T12:57:28.839Z,97836.05
2017-10-01T12:59:56.407Z,97838.92
2017-10-01T13:02:24.145Z,97834.14
2017-10-01T13:04:51.858Z,97827.63
2017-10-01T13:07:19.452Z,97824.71
2017-10-01T13:09:47.009Z,97821.95
2017-10-01T13:12:14.664Z,97824.45
2017-10-01T13:14:42.280Z,97818.49
2017-10-01T13:17:10.084Z,97821.86
2017-10-01T13:19:37.645Z,97819.42
2017-10-01T13:22:05.208Z,97821.03
2017-10-01T13:24:32.726Z,97823.51
2017-10-01T13:27:00.246Z,97821.87
2017-10-01T13:29:28.602Z,97823.33
2017-10-01T13:31:56.351Z,97828.95
2017-10-01T13:34:23.872Z,97829.55
2017-10-01T13:36:51.422Z,97819.44
2017-10-01T13:39:19.447Z,97820.98
2017-10-01T13:41:46.954Z,97818.22
2017-10-01T13:44:14.669Z,97816.39
2017-10-01T13:46:42.209Z,97808.09
2017-10-01T13:49:09.717Z,97805.93
2017-10-01T13:51:37.246Z,97813.97
2017-10-01T13:54:04.802Z,97809.81
2017-10-01T13:56:32.771Z,97814.58
2017-10-01T13:59:00.274Z,97818.63
2017-10-01T14:01:27.786Z,97815.28
2017-10-01T14:03:55.291Z,97814.82
2017-10-01T14:06:22.801Z,97810.87
2017-10-01T14:08:50.386Z,97807.70
2017-10-01T14:11:17.924Z,97804.84
2017-10-01T14:13:45.888Z,97804.23
2017-10-01T14:16:13.448Z,97810.00
2017-10-01T14:18:40.955Z,97803.72
2017-10-01T14:21:08.483Z,97803.98
2017-10-01T14:23:35.998Z,97801.58
2017-10-01T14:26:04.196Z,97802.78
2017-10-01T14:28:31.772Z,97813.70
2017-10-01T14:31:05.167Z,97812.66
2017-10-01T14:33:32.709Z,97802.53
2017-10-01T14:36:00.213Z,97802.12
2017-10-01T14:38:27.726Z,97797.02
2017-10-01T14:40:55.287Z,97789.89
2017-10-01T14:43:23.055Z,97794.50
2017-10-01T14:45:50.609Z,97794.63
2017-10-01T14:48:18.167Z,97793.22
2017-10-01T14:50:45.726Z,97787.08
2017-10-01T14:53:16.195Z,97789.06
2017-10-01T14:55:43.999Z,97793.03
2017-10-01T14:58:11.519Z,97783.75
2017-10-01T15:00:39.032Z,97788.27
2017-10-01T15:03:06.592Z,97789.88
2017-10-01T15:05:34.257Z,97782.15
2017-10-01T15:08:01.834Z,97785.61
2017-10-01T15:10:29.586Z,97784.06
2017-10-01T15:12:57.248Z,97784.06
2017-10-01T15:15:25.312Z,97781.76
2017-10-01T15:17:52.905Z,97775.30
2017-10-01T15:20:20.634Z,97771.31
2017-10-01T15:22:48.230Z,97769.80
2017-10-01T15:25:15.760Z,97766.50
2017-10-01T15:27:43.333Z,97766.16
2017-10-01T15:30:10.976Z,97770.55
2017-10-01T15:32:38.559Z,97772.30
2017-10-01T15:35:06.198Z,97770.72
2017-10-01T15:37:34.779Z,97768.21
2017-10-01T15:40:02.542Z,97771.42
2017-10-01T15:42:30.203Z,97768.86
2017-10-01T15:44:57.976Z,97769.42
2017-10-01T15:47:25.577Z,97764.30
2017-10-01T15:49:53.104Z,97769.52
2017-10-01T15:52:20.677Z,97764.33
2017-10-01T15:54:48.617Z,97764.00
2017-10-01T15:57:16.889Z,97763.88
2017-10-01T15:59:44.666Z,97769.97
2017-10-01T16:02:12.424Z,97773.09
2017-10-01T16:04:40.183Z,97769.40
2017-10-01T16:07:08.354Z,97768.57
2017-10-01T16:09:36.325Z,97771.59
2017-10-01T16:12:04.089Z,97769.45
2017-10-01T16:14:31.799Z,97773.50
2017-10-01T16:16:59.464Z,97772.82
2017-10-01T16:19:27.174Z,97776.09
2017-10-01T16:21:56.666Z,97780.45
2017-10-01T16:24:24.443Z,97780.20
2017-10-01T16:26:52.638Z,97773.61
2017-10-01T16:29:20.379Z,97778.48
2017-10-01T16:31:48.041Z,97765.71
2017-10-01T16:34:15.908Z,97779.36
2017-10-01T16:36:43.979Z,97779.39
2017-10-01T16:39:12.007Z,97779.92
2017-10-01T16:41:39.813Z,97782.30
2017-10-01T16:44:07.680Z,97783.97
2017-10-01T16:46:35.547Z,97786.11
2017-10-01T16:49:03.178Z,97784.80
2017-10-01T16:51:31.064Z,97787.48
2017-10-01T16:53:58.851Z,97778.34
2017-10-01T16:56:26.509Z,97779.00
2017-10-01T16:58:54.490Z,97777.16
2017-10-01T17:01:22.949Z,97781.23
2017-10-01T17:03:50.719Z,97774.84
2017-10-01T17:06:18.477Z,97777.26
2017-10-01T17:08:46.457Z,97774.79
2017-10-01T17:11:14.516Z,97779.47
2017-10-01T17:13:42.279Z,97776.14
2017-10-01T17:16:10.236Z,97787.00
2017-10-01T17:18:37.916Z,97789.85
2017-10-01T17:21:06.021Z,97794.75
2017-10-01T17:23:34.163Z,97782.71
2017-10-01T17:26:01.768Z,97781.48
2017-10-01T17:28:29.477Z,97786.94
2017-10-01T17:30:57.255Z,97787.53
2017-10-01T17:33:25.025Z,97788.09
2017-10-01T17:35:52.720Z,97790.03
2017-10-01T17:38:20.444Z,97797.38
2017-10-01T17:40:48.216Z,97800.06
2017-10-01T17:43:15.857Z,97804.64
2017-10-01T17:45:43.589Z,97796.91
2017-10-01T17:48:11.794Z,97794.76
2017-10-01T17:50:39.455Z,97800.48
2017-10-01T17:53:07.116Z,97792.25
2017-10-01T17:55:34.882Z,97790.58
2017-10-01T17:58:02.736Z,97794.48
2017-10-01T18:00:30.613Z,97793.14
2017-10-01T18:02:58.683Z,97796.75
2017-10-01T18:05:26.296Z,97805.40
2017-10-01T18:07:54.018Z,97805.84
2017-10-01T18:10:21.810Z,97806.11
2017-10-01T18:12:49.636Z,97803.09
2017-10-01T18:15:17.271Z,97805.42
2017-10-01T18:17:44.921Z,97811.55
2017-10-01T18:20:12.588Z,97815.98
2017-10-01T18:22:40.298Z,97815.28
2017-10-01T18:25:08.301Z,97816.75
2017-10-01T18:27:36.016Z,97811.07
2017-10-01T18:30:03.581Z,97814.31
2017-10-01T18:32:31.337Z,97810.80
2017-10-01T18:35:01.162Z,97814.59
2017-10-01T18:37:28.702Z,97813.02
2017-10-01T18:39:56.575Z,97815.77
2017-10-01T18:42:24.103Z,97815.53
2017-10-01T18:44:52.030Z,97814.11
2017-10-01T18:47:19.823Z,97808.34
2017-10-01T18:49:47.529Z,97805.58
2017-10-01T18:52:15.396Z,97805.81
2017-10-01T18:54:43.339Z,97799.79
2017-10-01T18:57:11.363Z,97803.58
2017-10-01T18:59:39.042Z,97800.64
2017-10-01T19:02:07.075Z,97801.05
2017-10-01T19:04:34.940Z,97798.91
2017-10-01T19:07:02.719Z,97805.34
2017-10-01T19:09:30.576Z,97800.34
2017-10-01T19:11:58.327Z,97807.69
2017-10-01T19:14:25.917Z,97812.49
2017-10-01T19:16:53.962Z,97821.52
2017-10-01T19:19:22.131Z,97827.60
2017-10-01T19:21:49.805Z,97824.95
2017-10-01T19:24:17.691Z,97829.21
2017-10-01T19:26:45.422Z,97824.95
2017-10-01T19:29:13.123Z,97822.67
2017-10-01T19:31:40.776Z,97829.08
2017-10-01T19:34:08.681Z,97822.36
2017-10-01T19:36:36.500Z,97822.36
2017-10-01T19:39:04.754Z,97819.09
2017-10-01T19:41:32.620Z,97820.44
2017-10-01T19:44:01.000Z,97812.89
2017-10-01T19:46:29.448Z,97813.38
2017-10-01T19:48:57.434Z,97817.25
2017-10-01T19:51:25.079Z,97814.88
2017-10-01T19:53:53.130Z,97821.16
2017-10-01T19:56:20.841Z,97824.13
2017-10-01T19:58:48.606Z,97825.41
2017-10-01T20:01:16.275Z,97817.97
2017-10-01T20:03:43.931Z,97810.23
2017-10-01T20:06:11.897Z,97814.20
2017-10-01T20:08:39.866Z,97809.72
2017-10-01T20:11:07.539Z,97814.77
2017-10-01T20:13:35.501Z,97811.58
2017-10-01T20:16:03.572Z,97807.09
2017-10-01T20:18:31.331Z,97807.70
2017-10-01T20:20:59.096Z,97809.66
2017-10-01T20:23:28.105Z,97804.48
2017-10-01T20:25:56.771Z,97801.62
2017-10-01T20:28:24.448Z,97798.73
2017-10-01T20:30:52.617Z,97804.34
2017-10-01T20:33:20.479Z,97806.60
2017-10-01T20:35:48.237Z,97807.61
2017-10-01T20:38:16.317Z,97800.16
2017-10-01T20:40:44.079Z,97793.84
2017-10-01T20:43:11.770Z,97790.98
2017-10-01T20:45:39.500Z,97785.23
2017-10-01T20:48:07.265Z,97789.05
2017-10-01T20:50:34.924Z,97782.61
2017-10-01T20:53:02.798Z,97781.67
2017-10-01T20:55:30.571Z,97788.02
2017-10-01T20:57:58.318Z,97783.92
2017-10-01T21:00:26.389Z,97787.38
2017-10-01T21:02:54.153Z,97790.52
2017-10-01T21:05:22.020Z,97785.88
2017-10-01T21:07:49.889Z,97784.59
2017-10-01T21:10:17.634Z,97775.61
2017-10-01T21:12:45.619Z,97777.63
2017-10-01T21:15:13.485Z,97786.77
2017-10-01T21:17:41.146Z,97784.30
2017-10-01T21:20:08.801Z,97787.35
2017-10-01T21:22:36.619Z,97783.95
2017-10-01T21:25:04.341Z,97780.76
2017-10-01T21:27:31.896Z,97778.66
2017-10-01T21:29:59.864Z,97781.09
2017-10-01T21:32:27.479Z,97775.67
2017-10-01T21:34:55.009Z,97770.19
2017-10-01T21:37:22.645Z,97767.31
2017-10-01T21:39:50.185Z,97775.13
2017-10-01T21:42:17.693Z,97772.47
2017-10-01T21:44:45.566Z,97772.25
2017-10-01T21:47:13.091Z,97779.66
2017-10-01T21:49:40.780Z,97775.37
2017-10-01T21:52:08.613Z,97775.37
2017-10-01T21:54:36.200Z,97780.20
2017-10-01T21:57:03.750Z,97773.69
2017-10-01T21:59:31.801Z,97770.05
2017-10-01T22:01:59.362Z,97770.84
2017-10-01T22:04:26.952Z,97772.02
2017-10-01T22:06:54.571Z,97777.27
2017-10-01T22:09:22.242Z,97773.44
2017-10-01T22:11:49.827Z,97772.00
2017-10-01T22:14:17.383Z,97774.00
2017-10-01T22:16:44.920Z,97779.73
2017-10-01T22:19:13.387Z,97773.42
2017-10-01T22:21:41.015Z,97774.84
2017-10-01T22:24:08.555Z,97769.95
2017-10-01T22:26:36.591Z,97764.31
2017-10-01T22:29:04.356Z,97765.40
2017-10-01T22:31:31.914Z,97759.66
2017-10-01T22:33:59.454Z,97749.73
2017-10-01T22:36:27.045Z,97744.36
2017-10-01T22:38:54.575Z,97745.09
2017-10-01T22:41:22.090Z,97746.06
2017-10-01T22:43:49.793Z,97746.15
2017-10-01T22:46:17.307Z,97729.02
2017-10-01T22:48:44.826Z,97729.36
2017-10-01T22:51:12.671Z,97727.33
2017-10-01T22:53:40.186Z,97726.62
2017-10-01T22:56:07.718Z,97722.87
2017-10-01T22:58:35.677Z,97722.33
2017-10-01T23:01:03.238Z,97722.36
2017-10-01T23:03:30.796Z,97720.06
2017-10-01T23:05:58.537Z,97714.00
2017-10-01T23:08:26.426Z,97711.75
2017-10-01T23:10:53.985Z,97713.23
2017-10-01T23:13:21.750Z,97705.98
2017-10-01T23:15:49.308Z,97702.79
2017-10-01T23:18:16.891Z,97699.05
2017-10-01T23:20:44.475Z,97696.52
2017-10-01T23:23:12.006Z,97705.20
2017-10-01T23:25:39.532Z,97698.27
2017-10-01T23:28:07.513Z,97699.95
2017-10-01T23:30:35.087Z,97692.95
2017-10-01T23:33:02.631Z,97691.33
2017-10-01T23:35:30.190Z,97687.05
2017-10-01T23:37:57.779Z,97696.36
2017-10-01T23:40:25.307Z,97691.97
2017-10-01T23:42:52.869Z,97691.97
2017-10-01T23:45:20.426Z,97696.34
2017-10-01T23:47:47.985Z,97705.55
2017-10-01T23:50:15.722Z,97705.40
2017-10-01T23:52:43.242Z,97712.19
2017-10-01T23:55:10.771Z,97713.45
2017-10-01T23:57:38.734Z,97707.23
